createdAt,value
2019-02-12T00:00:03.675Z,7.24
2019-02-12T00:01:03.166Z,6.68
2019-02-12T00:02:03.504Z,6.5
2019-02-12T00:03:03.091Z,8.01
2019-02-12T00:04:03.351Z,7.92
2019-02-12T00:05:03.104Z,7.04
2019-02-12T00:06:03.445Z,7.69
2019-02-12T00:07:02.906Z,6.79
2019-02-12T00:08:03.463Z,7.51
2019-02-12T00:09:03.102Z,8.21
2019-02-12T00:10:03.368Z,7.35
2019-02-12T00:11:02.754Z,7.29
2019-02-12T00:12:02.749Z,7.19
2019-02-12T00:13:02.857Z,6.86
2019-02-12T00:14:03.468Z,7.23
2019-02-12T00:15:03.127Z,7.31
2019-02-12T00:16:03.099Z,7.18
2019-02-12T00:17:03.731Z,7.75
2019-02-12T00:18:02.959Z,6.6
2019-02-12T00:19:03.625Z,6.88
2019-02-12T00:20:03.227Z,6.88
2019-02-12T00:21:09.503Z,7.73
2019-02-12T00:22:02.888Z,7.73
2019-02-12T00:23:03.112Z,7.26
2019-02-12T00:24:03.579Z,6.94
2019-02-12T00:25:03.146Z,6.94
2019-02-12T00:26:03.482Z,7.33
2019-02-12T00:27:03.114Z,7.39
2019-02-12T00:28:03.753Z,7.2
2019-02-12T00:29:03.086Z,6.55
2019-02-12T00:30:03.622Z,7.49
2019-02-12T00:31:02.924Z,7.89
2019-02-12T00:32:02.862Z,7.22
2019-02-12T00:33:03.174Z,6.21
2019-02-12T00:34:03.675Z,6.91
2019-02-12T00:35:03.252Z,7.34
2019-02-12T00:36:03.392Z,7.21
2019-02-12T00:37:02.854Z,6.94
2019-02-12T00:38:03.242Z,6.96
2019-02-12T00:39:03.575Z,7.5
2019-02-12T00:40:03.724Z,7.01
2019-02-12T00:41:02.533Z,7.02
2019-02-12T00:42:03.246Z,7.16
2019-02-12T00:43:03.653Z,7.04
2019-02-12T00:44:03.095Z,6.93
2019-02-12T00:45:03.891Z,6.95
2019-02-12T00:46:03.037Z,6.52
2019-02-12T00:47:02.819Z,7.33
2019-02-12T00:48:03.367Z,6.91
2019-02-12T00:49:02.809Z,6.32
2019-02-12T00:50:02.936Z,6.84
2019-02-12T00:51:03.874Z,6.84
2019-02-12T00:52:03.237Z,6.56
2019-02-12T00:53:02.802Z,7.94
2019-02-12T00:54:03.113Z,6.52
2019-02-12T00:55:02.922Z,7.68
2019-02-12T00:56:03.019Z,7.35
2019-02-12T00:57:02.881Z,7.38
2019-02-12T00:58:03.135Z,6.72
2019-02-12T00:59:03.573Z,7.07
2019-02-12T01:00:04.879Z,6.65
2019-02-12T01:01:03.387Z,6.49
2019-02-12T01:02:02.800Z,7.41
2019-02-12T01:03:03.153Z,6.31
2019-02-12T01:04:02.837Z,6.73
2019-02-12T01:05:04.536Z,6.85
2019-02-12T01:06:03.634Z,6.72
2019-02-12T01:07:03.156Z,6.57
2019-02-12T01:08:03.547Z,7.78
2019-02-12T01:09:02.985Z,7.56
2019-02-12T01:10:03.464Z,7.56
2019-02-12T01:11:02.989Z,7.56
2019-02-12T01:12:04.028Z,7.56
2019-02-12T01:13:02.906Z,7.34
2019-02-12T01:14:03.258Z,6.26
2019-02-12T01:15:02.931Z,6.26
2019-02-12T01:16:03.636Z,6.95
2019-02-12T01:17:02.802Z,6.73
2019-02-12T01:18:03.561Z,8.48
2019-02-12T01:19:02.747Z,8.24
2019-02-12T01:20:03.416Z,8.24
2019-02-12T01:21:03.752Z,7.32
2019-02-12T01:22:03.554Z,7.51
2019-02-12T01:23:03.121Z,8.09
2019-02-12T01:24:03.610Z,7.57
2019-02-12T01:25:03.156Z,7.75
2019-02-12T01:26:03.382Z,8.26
2019-02-12T01:27:02.738Z,8.71
2019-02-12T01:28:03.689Z,8.42
2019-02-12T01:29:02.827Z,7.83
2019-02-12T01:30:03.406Z,7.3
2019-02-12T01:31:03.295Z,8.35
2019-02-12T01:32:03.639Z,8.61
2019-02-12T01:33:02.982Z,6.52
2019-02-12T01:34:03.585Z,6.86
2019-02-12T01:35:03.111Z,7.23
2019-02-12T01:36:03.640Z,7.06
2019-02-12T01:37:03.079Z,7.66
2019-02-12T01:38:03.589Z,7.55
2019-02-12T01:39:02.919Z,7.65
2019-02-12T01:40:03.044Z,6.61
2019-02-12T01:41:03.472Z,7.26
2019-02-12T01:42:03.231Z,6.45
2019-02-12T01:43:02.797Z,6.47
2019-02-12T01:44:03.599Z,6.76
2019-02-12T01:45:03.055Z,6.55
2019-02-12T01:46:02.996Z,7.3
2019-02-12T01:47:03.412Z,6.21
2019-02-12T01:48:03.208Z,6.45
2019-02-12T01:49:03.135Z,7.69
2019-02-12T01:50:03.192Z,6.28
2019-02-12T01:51:02.803Z,5.77
2019-02-12T01:52:03.492Z,6.65
2019-02-12T01:53:02.857Z,6.99
2019-02-12T01:54:03.260Z,6.87
2019-02-12T01:55:03.678Z,7.02
2019-02-12T01:56:03.106Z,6.68
2019-02-12T01:57:03.972Z,6.28
2019-02-12T01:58:03.050Z,5.76
2019-02-12T01:59:03.432Z,6.02
2019-02-12T02:00:03.327Z,6.02
2019-02-12T02:01:03.376Z,7.19
2019-02-12T02:02:03.239Z,7.19
2019-02-12T02:03:03.317Z,6.1
2019-02-12T02:04:03.647Z,5.61
2019-02-12T02:05:03.243Z,5.61
2019-02-12T02:06:02.817Z,5.35
2019-02-12T02:07:03.150Z,5.64
2019-02-12T02:08:02.904Z,5.93
2019-02-12T02:09:03.160Z,4.91
2019-02-12T02:10:03.811Z,5.99
2019-02-12T02:11:03.277Z,5.25
2019-02-12T02:12:02.745Z,5.46
2019-02-12T02:13:03.247Z,4.68
2019-02-12T02:14:03.475Z,5.05
2019-02-12T02:15:03.211Z,5.29
2019-02-12T02:16:03.663Z,4.82
2019-02-12T02:17:02.928Z,5.49
2019-02-12T02:18:03.697Z,4.71
2019-02-12T02:19:03.020Z,6.02
2019-02-12T02:20:03.491Z,5.34
2019-02-12T02:21:02.942Z,5.99
2019-02-12T02:22:03.879Z,6.65
2019-02-12T02:23:03.531Z,5.58
2019-02-12T02:24:03.114Z,5.12
2019-02-12T02:25:03.805Z,5.34
2019-02-12T02:26:03.116Z,4.83
2019-02-12T02:27:02.673Z,5.45
2019-02-12T02:28:02.988Z,5.61
2019-02-12T02:29:03.381Z,4.75
2019-02-12T02:30:02.848Z,5.34
2019-02-12T02:31:03.619Z,4.82
2019-02-12T02:32:03.150Z,4.94
2019-02-12T02:33:03.691Z,4.95
2019-02-12T02:34:03.113Z,3.84
2019-02-12T02:35:03.418Z,4.31
2019-02-12T02:36:02.767Z,4.01
2019-02-12T02:37:03.425Z,3.91
2019-02-12T02:38:02.968Z,4.81
2019-02-12T02:39:03.418Z,4.01
2019-02-12T02:40:03.044Z,3.79
2019-02-12T02:41:03.512Z,4.08
2019-02-12T02:42:02.857Z,4.62
2019-02-12T02:43:03.346Z,4.16
2019-02-12T02:44:02.770Z,3.66
2019-02-12T02:45:03.699Z,4.31
2019-02-12T02:46:02.877Z,3.73
2019-02-12T02:47:03.442Z,3.86
2019-02-12T02:48:03.023Z,5.11
2019-02-12T02:49:03.452Z,3.42
2019-02-12T02:50:03.597Z,3.69
2019-02-12T02:51:03.773Z,3.96
2019-02-12T02:52:02.864Z,3.96
2019-02-12T02:53:03.331Z,3.66
2019-02-12T02:54:02.732Z,3.66
2019-02-12T02:55:03.535Z,3.66
2019-02-12T02:56:03.707Z,4.29
2019-02-12T02:57:03.411Z,4.29
2019-02-12T02:58:03.045Z,4.26
2019-02-12T02:59:03.607Z,4.31
2019-02-12T03:00:02.851Z,3.76
2019-02-12T03:01:03.286Z,3.8
2019-02-12T03:02:02.889Z,2.94
2019-02-12T03:03:03.296Z,3.26
2019-02-12T03:04:02.892Z,3.33
2019-02-12T03:05:03.593Z,3.44
2019-02-12T03:06:03.424Z,3.52
2019-02-12T03:07:03.437Z,3.26
2019-02-12T03:08:03.293Z,3.4
2019-02-12T03:09:02.883Z,3.22
2019-02-12T03:10:03.532Z,2.83
2019-02-12T03:11:03.094Z,2.59
2019-02-12T03:12:03.385Z,3.33
2019-02-12T03:13:03.662Z,2.88
2019-02-12T03:14:03.139Z,3.12
2019-02-12T03:15:02.855Z,3.48
2019-02-12T03:16:03.139Z,3.72
2019-02-12T03:17:02.754Z,3.16
2019-02-12T03:18:02.946Z,3.29
2019-02-12T03:19:02.533Z,2.91
2019-02-12T03:20:03.153Z,3.59
2019-02-12T03:21:03.780Z,3.29
2019-02-12T03:22:04.146Z,3.31
2019-02-12T03:23:03.754Z,3.82
2019-02-12T03:24:03.009Z,3.23
2019-02-12T03:25:03.613Z,3.81
2019-02-12T03:26:03.075Z,3.32
2019-02-12T03:27:03.376Z,3.79
2019-02-12T03:28:02.882Z,3.55
2019-02-12T03:29:03.527Z,3.97
2019-02-12T03:30:03.090Z,3.89
2019-02-12T03:31:03.341Z,3.81
2019-02-12T03:32:02.688Z,4
2019-02-12T03:33:03.396Z,3.87
2019-02-12T03:34:02.811Z,4.61
2019-02-12T03:35:03.784Z,3.29
2019-02-12T03:36:03.012Z,4.15
2019-02-12T03:37:03.340Z,3.29
2019-02-12T03:38:02.876Z,2.72
2019-02-12T03:39:03.339Z,3.11
2019-02-12T03:40:03.070Z,3.51
2019-02-12T03:41:03.520Z,3.5
2019-02-12T03:42:02.949Z,3.5
2019-02-12T03:43:03.059Z,3.46
2019-02-12T03:44:02.730Z,3.46
2019-02-12T03:45:03.145Z,3.59
2019-02-12T03:46:02.818Z,3.87
2019-02-12T03:47:03.194Z,3.39
2019-02-12T03:48:03.547Z,4.21
2019-02-12T03:49:03.078Z,3.15
2019-02-12T03:50:03.579Z,3.01
2019-02-12T03:51:02.939Z,3.9
2019-02-12T03:52:03.058Z,3.58
2019-02-12T03:53:02.730Z,3.76
2019-02-12T03:54:03.217Z,3.56
2019-02-12T03:55:03.016Z,3.59
2019-02-12T03:56:03.319Z,3.55
2019-02-12T03:57:03.838Z,3.35
2019-02-12T03:58:03.006Z,3.61
2019-02-12T03:59:03.815Z,4.2
2019-02-12T04:00:02.962Z,3.86
2019-02-12T04:01:03.682Z,3.96
2019-02-12T04:02:03.154Z,3.53
2019-02-12T04:03:03.548Z,3.52
2019-02-12T04:04:02.725Z,3.71
2019-02-12T04:05:03.585Z,3.58
2019-02-12T04:06:02.995Z,3.74
2019-02-12T04:07:03.585Z,3.61
2019-02-12T04:08:03.562Z,3.61
2019-02-12T04:09:03.188Z,3.84
2019-02-12T04:10:02.850Z,4.3
2019-02-12T04:11:03.224Z,3.52
2019-02-12T04:12:02.727Z,3.97
2019-02-12T04:13:03.475Z,4.72
2019-02-12T04:14:02.824Z,4.04
2019-02-12T04:15:03.540Z,3.84
2019-02-12T04:16:02.906Z,3.95
2019-02-12T04:17:03.219Z,4.45
2019-02-12T04:18:02.866Z,3.74
2019-02-12T04:19:03.381Z,3.82
2019-02-12T04:20:03.160Z,3.84
2019-02-12T04:21:03.341Z,3.72
2019-02-12T04:22:02.745Z,3.78
2019-02-12T04:23:03.125Z,4.64
2019-02-12T04:24:02.747Z,4.85
2019-02-12T04:25:03.477Z,4.18
2019-02-12T04:26:03.761Z,4.23
2019-02-12T04:27:03.289Z,4.59
2019-02-12T04:28:03.602Z,4.28
2019-02-12T04:29:03.130Z,4.36
2019-02-12T04:30:03.715Z,4.59
2019-02-12T04:31:03.350Z,4.44
2019-02-12T04:32:02.756Z,4.44
2019-02-12T04:33:03.311Z,5.58
2019-02-12T04:34:03.570Z,5.58
2019-02-12T04:35:03.365Z,4.91
2019-02-12T04:36:02.881Z,5.32
2019-02-12T04:37:03.295Z,5.55
2019-02-12T04:38:02.998Z,5.3
2019-02-12T04:39:03.451Z,5.03
2019-02-12T04:40:02.561Z,4.94
2019-02-12T04:41:03.213Z,5.7
2019-02-12T04:42:03.619Z,5.87
2019-02-12T04:43:03.183Z,5.54
2019-02-12T04:44:03.346Z,6.05
2019-02-12T04:45:03.148Z,5.82
2019-02-12T04:46:03.706Z,7.66
2019-02-12T04:47:02.930Z,7.06
2019-02-12T04:48:03.364Z,7.29
2019-02-12T04:49:03.023Z,7.92
2019-02-12T04:50:02.811Z,6.83
2019-02-12T04:51:03.121Z,6.86
2019-02-12T04:52:03.752Z,8.15
2019-02-12T04:53:02.888Z,7.78
2019-02-12T04:54:03.660Z,8.04
2019-02-12T04:55:03.180Z,6.89
2019-02-12T04:56:03.866Z,7.74
2019-02-12T04:57:03.099Z,7.57
2019-02-12T04:58:02.601Z,7.26
2019-02-12T04:59:03.203Z,8.67
2019-02-12T05:00:03.658Z,7.73
2019-02-12T05:01:02.972Z,8.74
2019-02-12T05:02:04.030Z,8.5
2019-02-12T05:03:03.045Z,7.84
2019-02-12T05:04:02.715Z,8.42
2019-02-12T05:05:03.061Z,7.85
2019-02-12T05:06:03.547Z,7.65
2019-02-12T05:07:03.165Z,8.85
2019-02-12T05:08:03.759Z,8.63
2019-02-12T05:09:03.296Z,6.69
2019-02-12T05:10:03.877Z,6.5
2019-02-12T05:11:03.331Z,7.04
2019-02-12T05:12:03.655Z,7.63
2019-02-12T05:13:03.051Z,7.18
2019-02-12T05:14:03.584Z,6.79
2019-02-12T05:15:03.047Z,6.83
2019-02-12T05:16:02.679Z,8.34
2019-02-12T05:17:02.799Z,8.34
2019-02-12T05:18:03.212Z,6.59
2019-02-12T05:19:02.560Z,6.19
2019-02-12T05:20:03.251Z,6.19
2019-02-12T05:21:02.773Z,8.38
2019-02-12T05:22:03.366Z,6.05
2019-02-12T05:23:02.825Z,6.18
2019-02-12T05:24:03.301Z,6.18
2019-02-12T05:25:02.877Z,5.91
2019-02-12T05:26:03.508Z,6.41
2019-02-12T05:27:02.564Z,6.4
2019-02-12T05:28:03.141Z,5.71
2019-02-12T05:29:02.690Z,5.88
2019-02-12T05:30:02.924Z,6.21
2019-02-12T05:31:03.405Z,6.96
2019-02-12T05:32:02.867Z,5.78
2019-02-12T05:33:03.469Z,6.71
2019-02-12T05:34:02.939Z,6.15
2019-02-12T05:35:03.600Z,5.71
2019-02-12T05:36:02.961Z,6.35
2019-02-12T05:37:03.348Z,5.12
2019-02-12T05:38:02.661Z,5.69
2019-02-12T05:39:03.113Z,5.26
2019-02-12T05:40:02.943Z,6.28
2019-02-12T05:41:03.735Z,5.61
2019-02-12T05:42:03.163Z,6.01
2019-02-12T05:43:03.323Z,6.51
2019-02-12T05:44:02.968Z,5.17
2019-02-12T05:45:03.305Z,5.71
2019-02-12T05:46:03.424Z,5.32
2019-02-12T05:47:03.234Z,5.24
2019-02-12T05:48:02.883Z,5.28
2019-02-12T05:49:03.033Z,5.41
2019-02-12T05:50:03.724Z,5.26
2019-02-12T05:51:02.948Z,6.34
2019-02-12T05:52:03.552Z,5.15
2019-02-12T05:53:03.206Z,5.19
2019-02-12T05:54:02.797Z,5.69
2019-02-12T05:55:02.974Z,6.15
2019-02-12T05:56:03.428Z,5.39
2019-02-12T05:57:03.605Z,5.06
2019-02-12T05:58:03.229Z,4.44
2019-02-12T05:59:03.855Z,5.34
2019-02-12T06:00:03.383Z,5.56
2019-02-12T06:01:03.702Z,4.71
2019-02-12T06:02:03.161Z,4.97
2019-02-12T06:03:03.664Z,5.5
2019-02-12T06:04:03.220Z,6.22
2019-02-12T06:05:03.669Z,5.25
2019-02-12T06:06:02.842Z,4.81
2019-02-12T06:07:03.670Z,5.04
2019-02-12T06:08:03.233Z,4.91
2019-02-12T06:09:03.337Z,5.35
2019-02-12T06:10:03.012Z,4.99
2019-02-12T06:11:03.349Z,4.86
2019-02-12T06:12:03.145Z,4.86
2019-02-12T06:13:03.447Z,5.38
2019-02-12T06:14:02.821Z,5.29
2019-02-12T06:15:03.440Z,5.29
2019-02-12T06:16:02.840Z,4.77
2019-02-12T06:17:03.329Z,4.68
2019-02-12T06:18:03.892Z,4.79
2019-02-12T06:19:03.413Z,5.66
2019-02-12T06:20:02.927Z,4.53
2019-02-12T06:21:03.115Z,5.14
2019-02-12T06:22:03.336Z,4.58
2019-02-12T06:23:04.419Z,4.99
2019-02-12T06:24:03.378Z,5.58
2019-02-12T06:25:03.236Z,4.56
2019-02-12T06:26:03.696Z,4.31
2019-02-12T06:27:02.978Z,4.72
2019-02-12T06:28:03.679Z,4.68
2019-02-12T06:29:03.503Z,4.66
2019-02-12T06:30:03.088Z,4.8
2019-02-12T06:31:02.994Z,4.32
2019-02-12T06:32:03.567Z,4.63
2019-02-12T06:33:07.962Z,4.18
2019-02-12T06:34:03.541Z,4.3
2019-02-12T06:35:02.946Z,4.64
2019-02-12T06:36:03.637Z,4.34
2019-02-12T06:37:02.980Z,3.91
2019-02-12T06:38:03.762Z,4.11
2019-02-12T06:39:03.020Z,4.56
2019-02-12T06:40:03.601Z,4.45
2019-02-12T06:41:02.816Z,4.05
2019-02-12T06:42:03.488Z,4.38
2019-02-12T06:43:03.126Z,3.98
2019-02-12T06:44:03.642Z,4.98
2019-02-12T06:45:03.639Z,4.56
2019-02-12T06:46:03.028Z,3.59
2019-02-12T06:47:03.613Z,3.92
2019-02-12T06:48:03.128Z,4.59
2019-02-12T06:49:03.477Z,3.78
2019-02-12T06:50:02.784Z,4.02
2019-02-12T06:51:03.369Z,3.46
2019-02-12T06:52:02.638Z,4.11
2019-02-12T06:53:12.840Z,4.31
2019-02-12T06:54:02.685Z,3.81
2019-02-12T06:55:03.102Z,3.72
2019-02-12T06:56:02.510Z,4.51
2019-02-12T06:57:03.125Z,3.96
2019-02-12T06:58:03.587Z,4.26
2019-02-12T06:59:03.672Z,4.19
2019-02-12T07:00:02.953Z,4.19
2019-02-12T07:01:02.936Z,4.08
2019-02-12T07:02:03.497Z,4.22
2019-02-12T07:03:03.040Z,4.18
2019-02-12T07:04:03.362Z,4.18
2019-02-12T07:05:03.658Z,3.76
2019-02-12T07:06:03.096Z,4.22
2019-02-12T07:07:02.755Z,4.22
2019-02-12T07:08:03.232Z,4.19
2019-02-12T07:09:02.893Z,3.99
2019-02-12T07:10:03.099Z,4.28
2019-02-12T07:11:02.642Z,4.01
2019-02-12T07:12:02.882Z,3.85
2019-02-12T07:13:03.714Z,4.15
2019-02-12T07:14:03.123Z,3.68
2019-02-12T07:15:03.690Z,4
2019-02-12T07:16:03.212Z,3.96
2019-02-12T07:17:03.349Z,4.37
2019-02-12T07:18:02.893Z,3.49
2019-02-12T07:19:03.523Z,4.58
2019-02-12T07:20:03.117Z,4.35
2019-02-12T07:21:03.807Z,4.72
2019-02-12T07:22:03.183Z,4.35
2019-02-12T07:23:03.582Z,3.92
2019-02-12T07:24:02.815Z,4.32
2019-02-12T07:25:03.288Z,4.7
2019-02-12T07:26:02.729Z,4.6
2019-02-12T07:27:03.408Z,3.64
2019-02-12T07:28:02.959Z,4.36
2019-02-12T07:29:03.636Z,5.96
2019-02-12T07:30:03.684Z,4.79
2019-02-12T07:31:03.116Z,5.01
2019-02-12T07:32:03.048Z,4.4
2019-02-12T07:33:03.290Z,4.63
2019-02-12T07:34:02.883Z,5.24
2019-02-12T07:35:03.657Z,5.26
2019-02-12T07:36:03.859Z,4.49
2019-02-12T07:37:03.153Z,4.86
2019-02-12T07:38:03.736Z,4.27
2019-02-12T07:39:03.252Z,4.79
2019-02-12T07:40:03.699Z,4.98
2019-02-12T07:41:03.370Z,6.08
2019-02-12T07:42:03.536Z,6.56
2019-02-12T07:43:02.940Z,5.8
2019-02-12T07:44:03.381Z,9.41
2019-02-12T07:45:03.183Z,18.48
2019-02-12T07:46:03.274Z,15.24
2019-02-12T07:47:03.175Z,35.32
2019-02-12T07:48:03.512Z,17.59
2019-02-12T07:49:02.772Z,9.46
2019-02-12T07:50:03.650Z,6.36
2019-02-12T07:51:03.022Z,4.89
2019-02-12T07:52:03.483Z,4.89
2019-02-12T07:53:03.362Z,4.88
2019-02-12T07:54:03.642Z,3.81
2019-02-12T07:55:03.108Z,3.81
2019-02-12T07:56:03.481Z,5.13
2019-02-12T07:57:03.049Z,4.36
2019-02-12T07:58:03.521Z,4.36
2019-02-12T07:59:03.344Z,4.01
2019-02-12T08:00:02.868Z,3.96
2019-02-12T08:01:03.195Z,3.72
2019-02-12T08:02:03.551Z,3.86
2019-02-12T08:03:03.130Z,3.85
2019-02-12T08:04:03.648Z,3.56
2019-02-12T08:05:03.495Z,3.71
2019-02-12T08:06:03.538Z,4.65
2019-02-12T08:07:02.765Z,4.1
2019-02-12T08:08:03.235Z,3.18
2019-02-12T08:09:03.810Z,3.54
2019-02-12T08:10:03.163Z,3.57
2019-02-12T08:11:02.851Z,3.24
2019-02-12T08:12:03.109Z,3.92
2019-02-12T08:13:03.814Z,3.36
2019-02-12T08:14:03.019Z,3.47
2019-02-12T08:15:03.572Z,4.1
2019-02-12T08:16:02.950Z,2.89
2019-02-12T08:17:03.469Z,3.87
2019-02-12T08:18:02.787Z,3.25
2019-02-12T08:19:03.529Z,4.12
2019-02-12T08:20:02.838Z,2.64
2019-02-12T08:21:03.428Z,2.51
2019-02-12T08:22:02.734Z,2.89
2019-02-12T08:23:03.680Z,3.06
2019-02-12T08:24:02.988Z,2.82
2019-02-12T08:25:03.597Z,2.75
2019-02-12T08:26:03.014Z,2.41
2019-02-12T08:27:03.282Z,3.08
2019-02-12T08:28:03.638Z,3.34
2019-02-12T08:29:03.238Z,2.71
2019-02-12T08:30:02.520Z,2.8
2019-02-12T08:31:03.252Z,3.04
2019-02-12T08:32:02.975Z,3.11
2019-02-12T08:33:03.209Z,2.9
2019-02-12T08:34:03.713Z,2.99
2019-02-12T08:35:03.544Z,3.06
2019-02-12T08:36:03.622Z,2.72
2019-02-12T08:37:03.632Z,2.72
2019-02-12T08:38:03.462Z,2.5
2019-02-12T08:39:03.166Z,2.99
2019-02-12T08:40:02.917Z,2.99
2019-02-12T08:41:03.766Z,3.09
2019-02-12T08:42:03.597Z,3.19
2019-02-12T08:43:03.344Z,3.19
2019-02-12T08:44:03.604Z,2.5
2019-02-12T08:45:03.267Z,5.77
2019-02-12T08:46:03.796Z,3.31
2019-02-12T08:47:03.339Z,2.89
2019-02-12T08:48:02.742Z,2.2
2019-02-12T08:49:03.410Z,2.56
2019-02-12T08:50:03.442Z,2.46
2019-02-12T08:51:03.321Z,2.95
2019-02-12T08:52:03.534Z,2.31
2019-02-12T08:53:03.229Z,2.69
2019-02-12T08:54:03.668Z,2.18
2019-02-12T08:55:03.342Z,2.61
2019-02-12T08:56:03.472Z,2.27
2019-02-12T08:57:02.896Z,2.83
2019-02-12T08:58:03.530Z,2.45
2019-02-12T08:59:02.718Z,2.32
2019-02-12T09:00:03.744Z,2.95
2019-02-12T09:01:02.874Z,2.61
2019-02-12T09:02:03.529Z,2.79
2019-02-12T09:03:02.856Z,2.18
2019-02-12T09:04:03.230Z,2.35
2019-02-12T09:05:03.561Z,2.29
2019-02-12T09:06:04.204Z,2.95
2019-02-12T09:07:03.673Z,2.81
2019-02-12T09:08:03.407Z,2.93
2019-02-12T09:09:03.602Z,2.27
2019-02-12T09:10:03.889Z,2.11
2019-02-12T09:11:03.649Z,2.08
2019-02-12T09:12:03.569Z,2.62
2019-02-12T09:13:03.382Z,2.17
2019-02-12T09:14:02.978Z,2.24
2019-02-12T09:15:03.317Z,2.57
2019-02-12T09:16:03.150Z,2.11
2019-02-12T09:17:02.951Z,2.56
2019-02-12T09:18:03.468Z,2.45
2019-02-12T09:19:03.103Z,2.66
2019-02-12T09:20:03.471Z,2.46
2019-02-12T09:21:03.457Z,2.7
2019-02-12T09:22:03.329Z,2.47
2019-02-12T09:23:03.696Z,2.78
2019-02-12T09:24:03.736Z,3.98
2019-02-12T09:25:03.710Z,2.5
2019-02-12T09:26:03.359Z,2.69
2019-02-12T09:27:03.270Z,2.16
2019-02-12T09:28:03.484Z,3.07
2019-02-12T09:29:03.130Z,2.55
2019-02-12T09:30:06.470Z,2.6
2019-02-12T09:31:03.558Z,2.85
2019-02-12T09:32:03.047Z,2.85
2019-02-12T09:33:03.612Z,3.02
2019-02-12T09:34:03.080Z,2.74
2019-02-12T09:35:03.478Z,2.74
2019-02-12T09:36:03.689Z,2.28
2019-02-12T09:37:03.424Z,2.99
2019-02-12T09:38:03.355Z,3.02
2019-02-12T09:39:02.669Z,2.61
2019-02-12T09:40:03.727Z,2.86
2019-02-12T09:41:02.956Z,3.12
2019-02-12T09:42:03.674Z,2.36
2019-02-12T09:43:03.305Z,3.54
2019-02-12T09:44:02.777Z,2.92
2019-02-12T09:45:03.322Z,2.81
2019-02-12T09:46:02.555Z,3.06
2019-02-12T09:47:03.349Z,2.69
2019-02-12T09:48:03.685Z,3.09
2019-02-12T09:49:02.797Z,2.34
2019-02-12T09:50:03.398Z,2.88
2019-02-12T09:51:02.567Z,3.61
2019-02-12T09:52:03.461Z,2.94
2019-02-12T09:53:02.754Z,2.65
2019-02-12T09:54:09.103Z,2.99
2019-02-12T09:55:02.863Z,2.71
2019-02-12T09:56:03.303Z,2.85
2019-02-12T09:57:02.866Z,2.6
2019-02-12T09:58:03.226Z,2.91
2019-02-12T09:59:03.339Z,2.53
2019-02-12T10:00:03.626Z,3.24
2019-02-12T10:01:02.833Z,3.05
2019-02-12T10:02:03.319Z,3.19
2019-02-12T10:03:02.694Z,2.68
2019-02-12T10:04:03.414Z,3.04
2019-02-12T10:05:03.237Z,2.38
2019-02-12T10:06:03.602Z,3.15
2019-02-12T10:07:03.158Z,3.41
2019-02-12T10:08:03.507Z,2.77
2019-02-12T10:09:03.135Z,3.58
2019-02-12T10:10:03.561Z,2.89
2019-02-12T10:11:03.251Z,3.38
2019-02-12T10:12:03.374Z,3
2019-02-12T10:13:03.012Z,2.96
2019-02-12T10:14:03.537Z,3.33
2019-02-12T10:15:02.926Z,2.72
2019-02-12T10:16:03.202Z,3.38
2019-02-12T10:17:02.804Z,3.02
2019-02-12T10:18:03.491Z,3.18
2019-02-12T10:19:02.971Z,3.38
2019-02-12T10:20:03.337Z,3.38
2019-02-12T10:21:03.622Z,2.85
2019-02-12T10:22:02.730Z,3.3
2019-02-12T10:23:03.474Z,3.3
2019-02-12T10:24:02.711Z,3.71
2019-02-12T10:25:03.414Z,3.56
2019-02-12T10:26:02.957Z,3.65
2019-02-12T10:27:03.424Z,3
2019-02-12T10:28:02.699Z,3.18
2019-02-12T10:29:03.176Z,2.52
2019-02-12T10:30:02.941Z,3.18
2019-02-12T10:31:03.419Z,3.27
2019-02-12T10:32:09.121Z,2.97
2019-02-12T10:33:02.957Z,3.04
2019-02-12T10:34:02.728Z,3.53
2019-02-12T10:35:03.188Z,3.1
2019-02-12T10:36:04.253Z,2.98
2019-02-12T10:37:03.157Z,3.49
2019-02-12T10:38:02.782Z,3.25
2019-02-12T10:39:02.793Z,3.31
2019-02-12T10:40:03.491Z,3.79
2019-02-12T10:41:02.869Z,2.93
2019-02-12T10:42:03.319Z,3.56
2019-02-12T10:43:02.661Z,3.38
2019-02-12T10:44:03.360Z,3.32
2019-02-12T10:45:02.904Z,3
2019-02-12T10:46:03.486Z,3.34
2019-02-12T10:47:02.974Z,3.16
2019-02-12T10:48:03.135Z,3.46
2019-02-12T10:49:02.808Z,3.72
2019-02-12T10:50:03.399Z,3.05
2019-02-12T10:51:02.684Z,3.21
2019-02-12T10:52:02.915Z,3.66
2019-02-12T10:53:03.216Z,3.01
2019-02-12T10:54:03.652Z,3.46
2019-02-12T10:55:03.329Z,2.84
2019-02-12T10:56:04.747Z,3.76
2019-02-12T10:57:03.454Z,2.57
2019-02-12T10:58:02.890Z,3.36
2019-02-12T10:59:03.276Z,2.89
2019-02-12T11:00:02.781Z,3.44
2019-02-12T11:01:02.976Z,3.11
2019-02-12T11:02:03.693Z,3.27
2019-02-12T11:03:03.023Z,3.44
2019-02-12T11:04:02.803Z,3.02
2019-02-12T11:05:03.107Z,2.41
2019-02-12T11:06:03.382Z,2.75
2019-02-12T11:07:03.066Z,3.04
2019-02-12T11:08:03.438Z,2.88
2019-02-12T11:09:02.902Z,2.98
2019-02-12T11:10:03.496Z,2.75
2019-02-12T11:11:02.952Z,2.75
2019-02-12T11:12:03.407Z,2.72
2019-02-12T11:13:03.138Z,2.72
2019-02-12T11:14:03.491Z,2.73
2019-02-12T11:15:03.680Z,2.98
2019-02-12T11:16:03.380Z,2.83
2019-02-12T11:17:02.916Z,2.89
2019-02-12T11:18:02.959Z,2.74
2019-02-12T11:19:02.868Z,2.93
2019-02-12T11:20:03.486Z,2.96
2019-02-12T11:21:12.206Z,2.58
2019-02-12T11:22:02.868Z,2.96
2019-02-12T11:23:03.633Z,2.56
2019-02-12T11:24:03.129Z,2.56
2019-02-12T11:25:03.738Z,3.03
2019-02-12T11:26:03.590Z,2.95
2019-02-12T11:27:02.610Z,2.34
2019-02-12T11:28:02.478Z,2.91
2019-02-12T11:29:02.893Z,2.95
2019-02-12T11:30:03.235Z,2.77
2019-02-12T11:31:03.551Z,2.47
2019-02-12T11:32:02.818Z,2.7
2019-02-12T11:33:03.495Z,2.22
2019-02-12T11:34:03.683Z,2.39
2019-02-12T11:35:03.079Z,2.77
2019-02-12T11:36:03.377Z,2.43
2019-02-12T11:37:02.885Z,3.01
2019-02-12T11:38:03.841Z,1.88
2019-02-12T11:39:02.989Z,2.72
2019-02-12T11:40:02.718Z,2.82
2019-02-12T11:41:03.126Z,2.13
2019-02-12T11:42:03.664Z,2.67
2019-02-12T11:43:02.914Z,2.29
2019-02-12T11:44:03.495Z,2.92
2019-02-12T11:45:03.241Z,2.57
2019-02-12T11:46:04.032Z,2.42
2019-02-12T11:47:02.722Z,2.26
2019-02-12T11:48:03.040Z,2.36
2019-02-12T11:49:03.451Z,2.34
2019-02-12T11:50:03.070Z,2.26
2019-02-12T11:51:02.800Z,2.81
2019-02-12T11:52:03.034Z,2.63
2019-02-12T11:53:02.758Z,2.23
2019-02-12T11:54:02.832Z,2.81
2019-02-12T11:55:03.586Z,2.13
2019-02-12T11:56:02.982Z,2.49
2019-02-12T11:57:02.791Z,2.49
2019-02-12T11:58:02.879Z,1.97
2019-02-12T11:59:03.468Z,1.43
2019-02-12T12:00:03.214Z,1.43
2019-02-12T12:01:03.430Z,3.19
2019-02-12T12:02:02.726Z,2.46
2019-02-12T12:03:03.187Z,2.46
2019-02-12T12:04:03.015Z,2.57
2019-02-12T12:05:03.452Z,2.05
2019-02-12T12:06:01.861Z,2.45
2019-02-12T12:07:03.481Z,2.45
2019-02-12T12:08:02.726Z,2.62
2019-02-12T12:09:03.384Z,2.8
2019-02-12T12:10:03.792Z,3.01
2019-02-12T12:11:03.318Z,2.39
2019-02-12T12:12:02.860Z,2.29
2019-02-12T12:13:03.210Z,1.98
2019-02-12T12:14:02.548Z,2.1
2019-02-12T12:15:03.170Z,2.32
2019-02-12T12:16:03.593Z,2.35
2019-02-12T12:17:03.253Z,1.79
2019-02-12T12:18:03.244Z,1.93
2019-02-12T12:19:03.028Z,2.11
2019-02-12T12:20:03.512Z,2.16
2019-02-12T12:21:02.881Z,2.75
2019-02-12T12:22:03.577Z,1.88
2019-02-12T12:23:02.758Z,1.91
2019-02-12T12:24:03.370Z,2.95
2019-02-12T12:25:02.799Z,1.84
2019-02-12T12:26:03.301Z,2.05
2019-02-12T12:27:02.660Z,2.2
2019-02-12T12:28:03.097Z,2.61
2019-02-12T12:29:02.810Z,2.38
2019-02-12T12:30:03.710Z,1.67
2019-02-12T12:31:02.864Z,2.19
2019-02-12T12:32:03.207Z,2.79
2019-02-12T12:33:03.065Z,2.3
2019-02-12T12:34:03.724Z,2.66
2019-02-12T12:35:02.798Z,2.22
2019-02-12T12:36:03.685Z,2.16
2019-02-12T12:37:02.926Z,2.53
2019-02-12T12:38:03.513Z,2.41
2019-02-12T12:39:02.696Z,2.24
2019-02-12T12:40:03.442Z,2.45
2019-02-12T12:41:02.879Z,2.21
2019-02-12T12:42:03.130Z,2.46
2019-02-12T12:43:03.048Z,2.8
2019-02-12T12:44:03.632Z,2.59
2019-02-12T12:45:02.896Z,2.59
2019-02-12T12:46:03.207Z,2.74
2019-02-12T12:47:03.683Z,2.49
2019-02-12T12:48:02.900Z,2.49
2019-02-12T12:49:03.318Z,2.31
2019-02-12T12:50:03.602Z,2.31
2019-02-12T12:51:02.788Z,2.65
2019-02-12T12:52:03.632Z,2.81
2019-02-12T12:53:02.874Z,2.98
2019-02-12T12:54:03.345Z,2.89
2019-02-12T12:55:03.451Z,2.36
2019-02-12T12:56:03.439Z,2.81
2019-02-12T12:57:03.939Z,2.81
2019-02-12T12:58:03.335Z,2.68
2019-02-12T12:59:03.182Z,2.56
2019-02-12T13:00:03.279Z,2.89
2019-02-12T13:01:03.737Z,2.41
2019-02-12T13:02:02.816Z,2.16
2019-02-12T13:03:04.156Z,2.64
2019-02-12T13:04:03.093Z,3.09
2019-02-12T13:05:03.716Z,3.24
2019-02-12T13:06:03.184Z,2.45
2019-02-12T13:07:03.110Z,2.45
2019-02-12T13:08:03.233Z,3.13
2019-02-12T13:09:02.887Z,2.38
2019-02-12T13:10:02.743Z,2.53
2019-02-12T13:11:02.995Z,2.32
2019-02-12T13:12:03.383Z,2.87
2019-02-12T13:13:04.881Z,3.22
2019-02-12T13:14:03.410Z,2.99
2019-02-12T13:15:03.323Z,3.22
2019-02-12T13:16:03.469Z,2.44
2019-02-12T13:17:03.014Z,2.85
2019-02-12T13:18:03.299Z,2.4
2019-02-12T13:19:03.142Z,2
2019-02-12T13:20:03.350Z,2.6